createdAt,value
2023-03-29T00:00:13.123Z,94.12
2023-03-29T00:01:13.226Z,94.01
2023-03-29T00:02:13.125Z,94.22
2023-03-29T00:03:13.448Z,94.16
2023-03-29T00:04:13.276Z,93.85
2023-03-29T00:05:13.797Z,94.16
2023-03-29T00:06:13.262Z,93.85
2023-03-29T00:07:13.068Z,93.85
2023-03-29T00:08:13.162Z,93.23
2023-03-29T00:09:13.145Z,94.16
2023-03-29T00:10:12.991Z,94.47
2023-03-29T00:11:13.055Z,94.16
2023-03-29T00:12:13.172Z,93.85
2023-03-29T00:13:12.958Z,93.54
2023-03-29T00:14:13.099Z,93.54
2023-03-29T00:15:12.943Z,93.85
2023-03-29T00:16:13.421Z,94.37
2023-03-29T00:17:13.131Z,93.74
2023-03-29T00:18:13.196Z,93.95
2023-03-29T00:19:13.130Z,93.80
2023-03-29T00:20:12.973Z,93.91
2023-03-29T00:21:12.873Z,93.80
2023-03-29T00:22:12.965Z,93.70
2023-03-29T00:23:13.082Z,92.87
2023-03-29T00:24:12.987Z,92.97
2023-03-29T00:25:13.200Z,93.18
2023-03-29T00:26:12.840Z,93.08
2023-03-29T00:27:12.820Z,93.18
2023-03-29T00:28:12.866Z,92.77
2023-03-29T00:29:13.029Z,92.57
2023-03-29T00:30:12.876Z,92.97
2023-03-29T00:31:12.830Z,92.57
2023-03-29T00:32:12.935Z,92.57
2023-03-29T00:33:13.351Z,92.87
2023-03-29T00:34:12.807Z,92.46
2023-03-29T00:35:12.736Z,92.67
2023-03-29T00:36:13.070Z,92.87
2023-03-29T00:37:12.816Z,92.46
2023-03-29T00:38:12.792Z,92.67
2023-03-29T00:39:12.962Z,92.87
2023-03-29T00:40:12.926Z,93.39
2023-03-29T00:41:12.877Z,93.08
2023-03-29T00:42:13.291Z,93.18
2023-03-29T00:43:12.708Z,93.08
2023-03-29T00:44:12.835Z,93.18
2023-03-29T00:45:12.632Z,93.49
2023-03-29T00:46:12.666Z,93.08
2023-03-29T00:47:12.580Z,92.25
2023-03-29T00:48:12.655Z,92.77
2023-03-29T00:49:12.701Z,92.25
2023-03-29T00:50:12.616Z,92.11
2023-03-29T00:51:12.650Z,92.21
2023-03-29T00:52:12.674Z,92.32
2023-03-29T00:53:12.572Z,92.32
2023-03-29T00:54:12.772Z,92.42
2023-03-29T00:55:12.555Z,93.24
2023-03-29T00:56:12.549Z,92.93
2023-03-29T00:57:12.668Z,92.93
2023-03-29T00:58:12.520Z,93.04
2023-03-29T00:59:12.558Z,92.63
2023-03-29T01:00:12.547Z,92.42
2023-03-29T01:01:12.674Z,92.63
2023-03-29T01:02:12.746Z,92.42
2023-03-29T01:03:12.652Z,92.42
2023-03-29T01:04:12.496Z,92.11
2023-03-29T01:05:12.526Z,92.32
2023-03-29T01:06:12.446Z,92.32
2023-03-29T01:07:12.557Z,92.32
2023-03-29T01:08:12.725Z,92.11
2023-03-29T01:09:12.398Z,92.00
2023-03-29T01:10:12.707Z,92.00
2023-03-29T01:11:12.376Z,91.69
2023-03-29T01:12:12.482Z,91.80
2023-03-29T01:13:12.565Z,92.00
2023-03-29T01:14:12.433Z,91.69
2023-03-29T01:15:12.495Z,91.49
2023-03-29T01:16:12.403Z,91.90
2023-03-29T01:17:12.355Z,92.42
2023-03-29T01:18:12.648Z,92.42
2023-03-29T01:19:12.340Z,91.80
2023-03-29T01:20:12.576Z,91.80
2023-03-29T01:21:12.309Z,91.80
2023-03-29T01:22:12.458Z,92.21
2023-03-29T01:23:12.287Z,92.00
2023-03-29T01:24:12.373Z,91.07
2023-03-29T01:25:12.489Z,91.38
2023-03-29T01:26:12.236Z,91.07
2023-03-29T01:27:12.329Z,91.07
2023-03-29T01:28:12.398Z,91.28
2023-03-29T01:29:12.204Z,90.87
2023-03-29T01:30:12.264Z,90.56
2023-03-29T01:31:12.228Z,91.07
2023-03-29T01:32:12.385Z,91.28
2023-03-29T01:33:12.312Z,91.49
2023-03-29T01:34:12.401Z,90.97
2023-03-29T01:35:12.156Z,90.97
2023-03-29T01:36:12.225Z,91.49
2023-03-29T01:37:12.145Z,90.97
2023-03-29T01:38:12.162Z,90.77
2023-03-29T01:39:12.154Z,91.17
2023-03-29T01:40:12.188Z,91.17
2023-03-29T01:41:12.140Z,91.28
2023-03-29T01:42:12.166Z,91.49
2023-03-29T01:43:12.228Z,91.49
2023-03-29T01:44:12.069Z,90.77
2023-03-29T01:45:12.239Z,91.17
2023-03-29T01:46:12.134Z,91.59
2023-03-29T01:47:12.303Z,91.28
2023-03-29T01:48:12.517Z,89.73
2023-03-29T01:49:12.258Z,89.69
2023-03-29T01:50:12.122Z,90.00
2023-03-29T01:51:12.245Z,90.00
2023-03-29T01:52:11.966Z,90.52
2023-03-29T01:53:12.013Z,90.83
2023-03-29T01:54:12.219Z,90.93
2023-03-29T01:55:11.973Z,90.52
2023-03-29T01:56:12.084Z,90.00
2023-03-29T01:57:12.175Z,89.89
2023-03-29T01:58:12.004Z,90.41
2023-03-29T01:59:12.132Z,89.69
2023-03-29T02:00:11.944Z,89.89
2023-03-29T02:01:11.981Z,90.72
2023-03-29T02:02:12.110Z,90.52
2023-03-29T02:03:12.024Z,90.93
2023-03-29T02:04:11.968Z,89.48
2023-03-29T02:05:12.464Z,89.28
2023-03-29T02:06:12.084Z,89.38
2023-03-29T02:07:12.029Z,89.59
2023-03-29T02:08:11.960Z,89.34
2023-03-29T02:09:11.840Z,89.07
2023-03-29T02:10:12.057Z,89.44
2023-03-29T02:11:12.714Z,89.44
2023-03-29T02:12:11.846Z,89.13
2023-03-29T02:13:12.005Z,88.82
2023-03-29T02:14:11.975Z,88.76
2023-03-29T02:15:11.961Z,89.34
2023-03-29T02:16:11.813Z,89.17
2023-03-29T02:17:11.937Z,88.86
2023-03-29T02:18:12.030Z,89.54
2023-03-29T02:19:11.874Z,89.54
2023-03-29T02:20:11.729Z,89.07
2023-03-29T02:21:11.688Z,89.13
2023-03-29T02:22:11.791Z,88.96
2023-03-29T02:23:11.817Z,88.92
2023-03-29T02:24:11.808Z,89.23
2023-03-29T02:25:11.684Z,88.96
2023-03-29T02:26:11.662Z,89.34
2023-03-29T02:27:11.817Z,89.34
2023-03-29T02:28:11.702Z,88.92
2023-03-29T02:29:11.847Z,88.41
2023-03-29T02:30:11.627Z,88.61
2023-03-29T02:31:11.673Z,89.34
2023-03-29T02:32:11.606Z,89.54
2023-03-29T02:33:11.656Z,89.75
2023-03-29T02:34:11.596Z,89.95
2023-03-29T02:35:11.601Z,89.23
2023-03-29T02:36:11.868Z,88.92
2023-03-29T02:37:11.667Z,89.13
2023-03-29T02:38:11.798Z,89.44
2023-03-29T02:39:11.784Z,89.44
2023-03-29T02:40:11.759Z,89.28
2023-03-29T02:41:11.852Z,89.89
2023-03-29T02:42:11.581Z,89.59
2023-03-29T02:43:11.559Z,89.38
2023-03-29T02:44:11.646Z,89.79
2023-03-29T02:45:11.475Z,88.51
2023-03-29T02:46:11.704Z,87.68
2023-03-29T02:47:11.587Z,88.41
2023-03-29T02:48:11.484Z,88.41
2023-03-29T02:49:11.471Z,88.61
2023-03-29T02:50:11.460Z,87.99
2023-03-29T02:51:11.423Z,87.99
2023-03-29T02:52:11.445Z,87.99
2023-03-29T02:53:12.072Z,87.99
2023-03-29T02:54:11.419Z,87.99
2023-03-29T02:55:11.579Z,87.58
2023-03-29T02:56:11.405Z,88.51
2023-03-29T02:57:11.537Z,88.61
2023-03-29T02:58:11.451Z,88.20
2023-03-29T02:59:11.506Z,88.20
2023-03-29T03:00:11.777Z,87.79
2023-03-29T03:01:11.337Z,88.41
2023-03-29T03:02:11.595Z,88.51
2023-03-29T03:03:11.395Z,88.10
2023-03-29T03:04:11.343Z,86.82
2023-03-29T03:05:11.331Z,87.54
2023-03-29T03:06:11.317Z,87.54
2023-03-29T03:07:11.240Z,86.82
2023-03-29T03:08:11.300Z,87.54
2023-03-29T03:09:11.260Z,87.54
2023-03-29T03:10:11.225Z,86.92
2023-03-29T03:11:11.417Z,87.23
2023-03-29T03:12:11.330Z,87.74
2023-03-29T03:13:11.906Z,87.54
2023-03-29T03:14:11.237Z,87.44
2023-03-29T03:15:11.218Z,87.02
2023-03-29T03:16:11.260Z,86.92
2023-03-29T03:17:11.324Z,86.71
2023-03-29T03:18:11.220Z,86.92
2023-03-29T03:19:11.196Z,87.44
2023-03-29T03:20:11.200Z,87.74
2023-03-29T03:21:11.298Z,87.65
2023-03-29T03:22:11.102Z,86.71
2023-03-29T03:23:11.124Z,86.92
2023-03-29T03:24:11.143Z,87.54
2023-03-29T03:25:11.056Z,87.54
2023-03-29T03:26:11.385Z,87.81
2023-03-29T03:27:11.169Z,87.29
2023-03-29T03:28:11.304Z,88.12
2023-03-29T03:29:11.168Z,87.19
2023-03-29T03:30:11.247Z,87.50
2023-03-29T03:31:11.147Z,87.71
2023-03-29T03:32:11.226Z,87.60
2023-03-29T03:33:11.024Z,87.40
2023-03-29T03:34:11.446Z,87.60
2023-03-29T03:35:10.999Z,88.32
2023-03-29T03:36:11.094Z,88.32
2023-03-29T03:37:11.086Z,89.15
2023-03-29T03:38:10.957Z,89.98
2023-03-29T03:39:11.430Z,90.39
2023-03-29T03:40:10.924Z,90.49
2023-03-29T03:41:11.042Z,90.39
2023-03-29T03:42:10.975Z,91.01
2023-03-29T03:43:11.067Z,91.22
2023-03-29T03:44:11.094Z,91.52
2023-03-29T03:45:10.931Z,91.42
2023-03-29T03:46:10.959Z,91.42
2023-03-29T03:47:11.008Z,91.32
2023-03-29T03:48:10.997Z,91.83
2023-03-29T03:49:10.963Z,91.88
2023-03-29T03:50:10.842Z,91.56
2023-03-29T03:51:10.840Z,91.88
2023-03-29T03:52:10.852Z,91.98
2023-03-29T03:53:10.817Z,91.46
2023-03-29T03:54:11.230Z,91.67
2023-03-29T03:55:11.073Z,91.67
2023-03-29T03:56:10.823Z,91.67
2023-03-29T03:57:10.819Z,91.77
2023-03-29T03:58:10.992Z,92.19
2023-03-29T03:59:10.820Z,92.19
2023-03-29T04:00:10.840Z,92.08
2023-03-29T04:01:10.724Z,92.29
2023-03-29T04:02:10.772Z,92.08
2023-03-29T04:03:11.246Z,92.40
2023-03-29T04:04:10.902Z,93.53
2023-03-29T04:05:10.718Z,93.43
2023-03-29T04:06:10.925Z,93.43
2023-03-29T04:07:10.702Z,93.01
2023-03-29T04:08:10.659Z,92.70
2023-03-29T04:09:10.698Z,93.22
2023-03-29T04:10:10.623Z,93.22
2023-03-29T04:11:10.726Z,93.53
2023-03-29T04:12:10.632Z,93.53
2023-03-29T04:13:10.604Z,93.12
2023-03-29T04:14:10.625Z,93.22
2023-03-29T04:15:10.620Z,93.43
2023-03-29T04:16:10.741Z,93.63
2023-03-29T04:17:10.572Z,93.53
2023-03-29T04:18:10.654Z,94.04
2023-03-29T04:19:10.579Z,94.25
2023-03-29T04:20:10.603Z,94.46
2023-03-29T04:21:10.513Z,94.87
2023-03-29T04:22:10.524Z,94.50
2023-03-29T04:23:10.742Z,94.09
2023-03-29T04:24:10.949Z,94.46
2023-03-29T04:25:10.574Z,94.71
2023-03-29T04:26:10.497Z,94.81
2023-03-29T04:27:10.513Z,94.60
2023-03-29T04:28:10.637Z,95.22
2023-03-29T04:29:10.471Z,95.32
2023-03-29T04:30:10.627Z,95.22
2023-03-29T04:31:10.678Z,95.32
2023-03-29T04:32:10.441Z,95.53
2023-03-29T04:33:10.632Z,95.53
2023-03-29T04:34:10.637Z,95.43
2023-03-29T04:35:10.414Z,95.43
2023-03-29T04:36:10.635Z,95.43
2023-03-29T04:37:10.507Z,95.84
2023-03-29T04:38:10.369Z,95.84
2023-03-29T04:39:10.320Z,95.53
2023-03-29T04:40:10.345Z,94.81
2023-03-29T04:41:10.760Z,94.92
2023-03-29T04:42:10.331Z,94.60
2023-03-29T04:43:10.338Z,94.71
2023-03-29T04:44:10.334Z,94.60
2023-03-29T04:45:10.419Z,94.56
2023-03-29T04:46:10.343Z,95.07
2023-03-29T04:47:10.271Z,94.67
2023-03-29T04:48:10.344Z,94.56
2023-03-29T04:49:10.284Z,95.07
2023-03-29T04:50:10.302Z,95.80
2023-03-29T04:51:10.237Z,96.31
2023-03-29T04:52:10.362Z,96.62
2023-03-29T04:53:10.271Z,97.25
2023-03-29T04:54:10.365Z,97.45
2023-03-29T04:55:10.284Z,97.55
2023-03-29T04:56:10.392Z,97.71
2023-03-29T04:57:10.253Z,98.01
2023-03-29T04:58:10.209Z,98.22
2023-03-29T04:59:10.342Z,98.53
2023-03-29T05:00:10.224Z,98.63
2023-03-29T05:01:10.234Z,98.84
2023-03-29T05:02:10.412Z,98.94
2023-03-29T05:03:10.185Z,99.05
2023-03-29T05:04:12.550Z,99.35
2023-03-29T05:05:10.264Z,99.66
2023-03-29T05:06:10.522Z,99.87
2023-03-29T05:07:10.273Z,99.98
2023-03-29T05:08:10.667Z,99.99
2023-03-29T05:09:10.242Z,99.99
2023-03-29T05:10:10.054Z,99.99
2023-03-29T05:11:10.123Z,99.99
2023-03-29T05:12:10.083Z,99.99
2023-03-29T05:13:10.005Z,99.99
2023-03-29T05:14:10.029Z,99.99
2023-03-29T05:15:10.032Z,99.99
2023-03-29T05:16:10.032Z,99.99
2023-03-29T05:17:10.153Z,99.99
2023-03-29T05:18:10.052Z,99.99
2023-03-29T05:19:09.983Z,99.99
2023-03-29T05:20:09.981Z,99.99
2023-03-29T05:21:09.972Z,99.99
2023-03-29T05:22:09.928Z,99.99
2023-03-29T05:23:10.028Z,99.99
2023-03-29T05:24:10.049Z,99.99
2023-03-29T05:25:10.226Z,99.99
2023-03-29T05:26:10.096Z,99.99
2023-03-29T05:27:09.947Z,99.99
2023-03-29T05:28:09.900Z,99.99
2023-03-29T05:29:10.041Z,99.99
2023-03-29T05:30:10.110Z,99.99
2023-03-29T05:31:10.199Z,99.99
2023-03-29T05:32:09.942Z,99.99
2023-03-29T05:33:10.031Z,99.99
2023-03-29T05:34:10.009Z,99.99
2023-03-29T05:35:09.850Z,99.99
2023-03-29T05:36:10.274Z,99.99
2023-03-29T05:37:09.793Z,99.99
2023-03-29T05:38:10.058Z,99.99
2023-03-29T05:39:09.815Z,99.99
2023-03-29T05:40:09.752Z,99.99
2023-03-29T05:41:09.751Z,99.99
2023-03-29T05:42:10.028Z,99.99
2023-03-29T05:43:10.315Z,99.99
2023-03-29T05:44:09.820Z,99.99
2023-03-29T05:45:09.786Z,99.99
2023-03-29T05:46:09.740Z,99.99
2023-03-29T05:47:09.797Z,99.99
2023-03-29T05:48:09.737Z,99.99
2023-03-29T05:49:09.664Z,99.99
2023-03-29T05:50:09.700Z,99.99
2023-03-29T05:51:09.669Z,99.99
2023-03-29T05:52:09.636Z,99.99
2023-03-29T05:53:09.638Z,99.99
2023-03-29T05:54:11.150Z,99.99
2023-03-29T05:55:09.597Z,99.99
2023-03-29T05:56:09.823Z,99.99
2023-03-29T05:57:09.693Z,99.99
2023-03-29T05:58:09.570Z,99.99
2023-03-29T05:59:09.706Z,99.99
2023-03-29T06:00:09.640Z,99.99
2023-03-29T06:01:09.595Z,99.99
2023-03-29T06:02:09.591Z,99.99
2023-03-29T06:03:19.948Z,99.99
2023-03-29T06:04:09.726Z,99.99
2023-03-29T06:05:09.650Z,99.99
2023-03-29T06:06:09.728Z,99.99
2023-03-29T06:07:09.490Z,99.99
2023-03-29T06:08:09.557Z,99.99
2023-03-29T06:09:09.524Z,99.99
2023-03-29T06:10:09.898Z,99.99
2023-03-29T06:11:09.799Z,99.99
2023-03-29T06:12:09.473Z,99.99
2023-03-29T06:13:09.442Z,99.99
2023-03-29T06:14:09.653Z,99.99
2023-03-29T06:15:09.441Z,99.99
2023-03-29T06:16:09.571Z,99.99
2023-03-29T06:17:09.468Z,99.99
2023-03-29T06:18:09.466Z,99.99
2023-03-29T06:19:09.414Z,99.99
2023-03-29T06:20:09.584Z,99.99
2023-03-29T06:21:09.498Z,99.99
2023-03-29T06:22:09.369Z,99.94
2023-03-29T06:23:09.364Z,99.84
2023-03-29T06:24:09.653Z,99.94
2023-03-29T06:25:09.355Z,99.73
2023-03-29T06:26:09.775Z,99.52
2023-03-29T06:27:09.416Z,99.32
2023-03-29T06:28:09.294Z,98.97
2023-03-29T06:29:09.280Z,99.17
2023-03-29T06:30:09.311Z,98.86
2023-03-29T06:31:09.298Z,98.86
2023-03-29T06:32:09.415Z,98.97
2023-03-29T06:33:09.356Z,99.17
2023-03-29T06:34:09.446Z,99.07
2023-03-29T06:35:09.254Z,98.97
2023-03-29T06:36:09.416Z,98.76
2023-03-29T06:37:09.293Z,98.14
2023-03-29T06:38:09.203Z,98.14
2023-03-29T06:39:09.538Z,98.24
2023-03-29T06:40:09.528Z,98.10
2023-03-29T06:41:09.368Z,97.89
2023-03-29T06:42:20.076Z,97.58
2023-03-29T06:43:09.675Z,97.27
2023-03-29T06:44:09.269Z,97.38
2023-03-29T06:45:09.357Z,97.06
2023-03-29T06:46:09.193Z,96.75
2023-03-29T06:47:09.096Z,96.55
2023-03-29T06:48:09.150Z,95.83
2023-03-29T06:49:09.253Z,95.83
2023-03-29T06:50:09.046Z,95.99
2023-03-29T06:51:09.365Z,95.17
2023-03-29T06:52:09.477Z,95.48
2023-03-29T06:53:09.095Z,95.68
2023-03-29T06:54:09.243Z,94.55
2023-03-29T06:55:09.042Z,93.52
2023-03-29T06:56:09.451Z,94.03
2023-03-29T06:57:09.081Z,93.83
2023-03-29T06:58:09.014Z,94.03
2023-03-29T06:59:08.968Z,93.93
2023-03-29T07:00:09.248Z,93.31
2023-03-29T07:01:09.181Z,92.80
2023-03-29T07:02:09.088Z,93.06
2023-03-29T07:03:09.117Z,93.58
2023-03-29T07:04:09.023Z,93.27
2023-03-29T07:05:08.967Z,92.96
2023-03-29T07:06:09.128Z,92.65
2023-03-29T07:07:08.904Z,92.71
2023-03-29T07:08:08.958Z,92.71
2023-03-29T07:09:08.895Z,90.96
2023-03-29T07:10:08.937Z,91.89
2023-03-29T07:11:08.910Z,92.20
2023-03-29T07:12:08.906Z,91.78
2023-03-29T07:13:08.873Z,91.06
2023-03-29T07:14:08.857Z,90.14
2023-03-29T07:15:08.935Z,90.75
2023-03-29T07:16:08.996Z,91.38
2023-03-29T07:17:08.914Z,91.06
2023-03-29T07:18:09.085Z,90.96
2023-03-29T07:19:09.054Z,91.06
2023-03-29T07:20:08.959Z,91.38
2023-03-29T07:21:08.752Z,92.10
2023-03-29T07:22:08.777Z,92.57
2023-03-29T07:23:08.979Z,91.02
2023-03-29T07:24:09.138Z,91.64
2023-03-29T07:25:09.035Z,91.95
2023-03-29T07:26:08.769Z,92.25
2023-03-29T07:27:08.888Z,91.95
2023-03-29T07:28:08.750Z,91.13
2023-03-29T07:29:08.787Z,90.92
2023-03-29T07:30:08.788Z,89.79
2023-03-29T07:31:08.800Z,89.28
2023-03-29T07:32:08.700Z,89.69
2023-03-29T07:33:09.014Z,89.48
2023-03-29T07:34:08.720Z,89.58
2023-03-29T07:35:08.633Z,89.75
2023-03-29T07:36:08.722Z,88.82
2023-03-29T07:37:08.623Z,88.82
2023-03-29T07:38:08.596Z,88.72
2023-03-29T07:39:08.588Z,88.92
2023-03-29T07:40:08.563Z,89.40
2023-03-29T07:41:08.678Z,89.09
2023-03-29T07:42:08.751Z,88.68
2023-03-29T07:43:08.552Z,88.27
2023-03-29T07:44:08.737Z,87.85
2023-03-29T07:45:08.806Z,88.17
2023-03-29T07:46:08.600Z,87.13
2023-03-29T07:47:09.102Z,88.06
2023-03-29T07:48:09.137Z,88.27
2023-03-29T07:49:08.497Z,88.47
2023-03-29T07:50:08.496Z,88.47
2023-03-29T07:51:08.507Z,88.37
2023-03-29T07:52:08.618Z,87.45
2023-03-29T07:53:08.460Z,87.04
2023-03-29T07:54:08.489Z,87.55
2023-03-29T07:55:08.439Z,87.75
2023-03-29T07:56:08.618Z,88.17
2023-03-29T07:57:08.439Z,88.17
2023-03-29T07:58:08.473Z,87.45
2023-03-29T07:59:08.549Z,88.37
2023-03-29T08:00:08.468Z,88.89
2023-03-29T08:01:08.440Z,89.15
2023-03-29T08:02:08.363Z,88.43
2023-03-29T08:03:08.673Z,88.12
2023-03-29T08:04:08.520Z,88.02
2023-03-29T08:05:08.390Z,87.77
2023-03-29T08:06:08.344Z,86.85
2023-03-29T08:07:08.355Z,85.41
2023-03-29T08:08:08.298Z,85.93
2023-03-29T08:09:08.273Z,86.65
2023-03-29T08:10:08.296Z,86.44
2023-03-29T08:11:08.264Z,85.41
2023-03-29T08:12:08.396Z,85.72
2023-03-29T08:13:08.269Z,85.89
2023-03-29T08:14:08.457Z,84.66
2023-03-29T08:15:08.395Z,86.50
2023-03-29T08:16:08.290Z,84.96
2023-03-29T08:17:08.349Z,85.27
2023-03-29T08:18:09.319Z,84.76
2023-03-29T08:19:08.819Z,85.47
2023-03-29T08:20:08.373Z,85.23
2023-03-29T08:21:08.466Z,84.41
2023-03-29T08:22:08.350Z,85.03
2023-03-29T08:23:08.276Z,85.13
2023-03-29T08:24:08.283Z,85.23
2023-03-29T08:25:08.146Z,85.54
2023-03-29T08:26:08.165Z,83.07
2023-03-29T08:27:08.120Z,84.31
2023-03-29T08:28:08.314Z,84.72
2023-03-29T08:29:08.142Z,85.64
2023-03-29T08:30:08.680Z,85.54
2023-03-29T08:31:08.075Z,86.77
2023-03-29T08:32:08.246Z,88.72
2023-03-29T08:33:08.366Z,90.16
2023-03-29T08:34:08.070Z,90.91
2023-03-29T08:35:08.261Z,91.22
2023-03-29T08:36:08.184Z,92.40
2023-03-29T08:37:08.167Z,93.42
2023-03-29T08:38:08.165Z,93.83
2023-03-29T08:39:08.470Z,94.59
2023-03-29T08:40:08.507Z,95.52
2023-03-29T08:41:08.116Z,96.03
2023-03-29T08:42:08.019Z,96.23
2023-03-29T08:43:07.970Z,95.87
2023-03-29T08:44:08.768Z,95.97
2023-03-29T08:45:08.656Z,97.10
2023-03-29T08:46:08.278Z,95.25
2023-03-29T08:47:07.989Z,95.87
2023-03-29T08:48:08.192Z,96.59
2023-03-29T08:49:07.925Z,97.10
2023-03-29T08:50:08.176Z,97.52
2023-03-29T08:51:09.951Z,97.78
2023-03-29T08:52:08.074Z,97.99
2023-03-29T08:53:08.039Z,97.78
2023-03-29T08:54:08.254Z,97.27
2023-03-29T08:55:08.052Z,96.85
2023-03-29T08:56:07.824Z,96.30
2023-03-29T08:57:07.873Z,96.30
2023-03-29T08:58:07.801Z,96.40
2023-03-29T08:59:08.027Z,95.37
2023-03-29T09:00:08.503Z,93.83
2023-03-29T09:01:08.078Z,91.67
2023-03-29T09:02:07.965Z,92.70
2023-03-29T09:03:07.897Z,93.38
2023-03-29T09:04:07.939Z,94.05
2023-03-29T09:05:07.754Z,93.64
2023-03-29T09:06:08.313Z,90.67
2023-03-29T09:07:07.750Z,90.26
2023-03-29T09:08:07.948Z,90.42
2023-03-29T09:09:07.680Z,90.32
2023-03-29T09:10:07.871Z,89.97
2023-03-29T09:11:08.095Z,89.04
2023-03-29T09:12:07.947Z,88.70
2023-03-29T09:13:07.747Z,89.83
2023-03-29T09:14:07.672Z,89.51
2023-03-29T09:15:07.639Z,87.94
2023-03-29T09:16:07.714Z,86.81
2023-03-29T09:17:07.641Z,86.10
2023-03-29T09:18:07.843Z,86.30
2023-03-29T09:19:07.778Z,86.71
2023-03-29T09:20:08.073Z,87.22
2023-03-29T09:21:07.596Z,85.85
2023-03-29T09:22:07.673Z,86.26
2023-03-29T09:23:07.664Z,86.57
2023-03-29T09:24:08.029Z,85.64
2023-03-29T09:25:07.882Z,87.08
2023-03-29T09:26:07.609Z,87.38
2023-03-29T09:27:07.655Z,86.26
2023-03-29T09:28:07.601Z,85.03
2023-03-29T09:29:09.537Z,84.99
2023-03-29T09:30:07.710Z,86.63
2023-03-29T09:31:07.665Z,86.12
2023-03-29T09:32:07.503Z,83.76
2023-03-29T09:33:07.734Z,84.65
2023-03-29T09:34:07.447Z,85.06
2023-03-29T09:35:07.718Z,83.89
2023-03-29T09:36:07.496Z,84.81
2023-03-29T09:37:07.429Z,84.77
2023-03-29T09:38:07.437Z,83.14
2023-03-29T09:39:07.803Z,82.93
2023-03-29T09:40:07.600Z,81.91
2023-03-29T09:41:07.362Z,83.30
2023-03-29T09:42:07.443Z,83.71
2023-03-29T09:43:07.348Z,83.71
2023-03-29T09:44:09.398Z,80.89
2023-03-29T09:45:07.677Z,83.85
2023-03-29T09:46:07.620Z,85.28
2023-03-29T09:47:07.564Z,85.35
2023-03-29T09:48:07.358Z,81.71
2023-03-29T09:49:07.575Z,81.91
2023-03-29T09:50:11.879Z,81.91
2023-03-29T09:51:07.494Z,80.58
2023-03-29T09:52:07.277Z,81.20
2023-03-29T09:53:07.256Z,82.63
2023-03-29T09:54:07.363Z,81.40
2023-03-29T09:55:07.238Z,80.89
2023-03-29T09:56:07.246Z,82.22
2023-03-29T09:57:07.257Z,82.18
2023-03-29T09:58:07.230Z,82.39
2023-03-29T09:59:07.365Z,80.96
2023-03-29T10:00:07.230Z,80.96
2023-03-29T10:01:07.355Z,81.73
2023-03-29T10:02:07.388Z,81.73
2023-03-29T10:03:10.036Z,80.41
2023-03-29T10:04:07.403Z,79.59
2023-03-29T10:05:07.167Z,81.49
2023-03-29T10:06:07.530Z,80.47
2023-03-29T10:07:07.162Z,79.32
2023-03-29T10:08:07.129Z,80.13
2023-03-29T10:09:07.084Z,78.09
2023-03-29T10:10:07.125Z,80.02
2023-03-29T10:11:07.197Z,78.23
2023-03-29T10:12:07.110Z,77.11
2023-03-29T10:13:07.116Z,78.84
2023-03-29T10:14:07.080Z,79.35
2023-03-29T10:15:11.706Z,79.25
2023-03-29T10:16:07.183Z,79.00
2023-03-29T10:17:07.622Z,76.56
2023-03-29T10:18:07.109Z,79.38
2023-03-29T10:19:07.094Z,77.51
2023-03-29T10:20:08.202Z,74.04
2023-03-29T10:21:07.041Z,76.18
2023-03-29T10:22:07.572Z,75.98
2023-03-29T10:23:06.986Z,76.86
2023-03-29T10:24:07.121Z,77.13
2023-03-29T10:25:06.950Z,74.99
2023-03-29T10:26:06.957Z,75.29
2023-03-29T10:27:06.917Z,71.70
2023-03-29T10:28:06.990Z,75.32
2023-03-29T10:29:06.980Z,72.34
2023-03-29T10:30:07.066Z,74.95
2023-03-29T10:31:07.027Z,69.37
2023-03-29T10:32:07.048Z,70.39
2023-03-29T10:33:07.083Z,70.65
2023-03-29T10:34:07.029Z,70.28
2023-03-29T10:35:06.877Z,71.00
2023-03-29T10:36:07.459Z,71.00
2023-03-29T10:37:07.060Z,71.40
2023-03-29T10:38:06.934Z,69.03
2023-03-29T10:39:06.960Z,71.70
2023-03-29T10:40:06.887Z,73.39
2023-03-29T10:41:06.925Z,72.82
2023-03-29T10:42:06.829Z,70.96
2023-03-29T10:43:07.161Z,70.65
2023-03-29T10:44:07.099Z,70.21
2023-03-29T10:45:06.742Z,68.83
2023-03-29T10:46:07.009Z,68.02
2023-03-29T10:47:06.773Z,69.24
2023-03-29T10:48:06.995Z,70.65
2023-03-29T10:49:06.803Z,69.51
2023-03-29T10:50:06.697Z,68.63
2023-03-29T10:51:07.234Z,70.56
2023-03-29T10:52:06.709Z,68.52
2023-03-29T10:53:07.067Z,70.25
2023-03-29T10:54:06.734Z,71.40
2023-03-29T10:55:06.847Z,68.94
2023-03-29T10:56:06.676Z,67.01
2023-03-29T10:57:06.722Z,67.25
2023-03-29T10:58:06.653Z,67.00
2023-03-29T10:59:06.616Z,68.43
2023-03-29T11:00:06.778Z,69.88
2023-03-29T11:01:06.869Z,69.07
2023-03-29T11:02:06.617Z,69.78
2023-03-29T11:03:06.724Z,68.63
2023-03-29T11:04:07.008Z,68.83
2023-03-29T11:05:06.551Z,70.93
2023-03-29T11:06:06.834Z,68.70
2023-03-29T11:07:06.705Z,68.29
2023-03-29T11:08:06.779Z,69.51
2023-03-29T11:09:06.497Z,68.80
2023-03-29T11:10:06.779Z,69.81
2023-03-29T11:11:06.698Z,69.81
2023-03-29T11:12:15.618Z,67.72
2023-03-29T11:13:06.735Z,68.63
2023-03-29T11:14:06.433Z,71.26
2023-03-29T11:15:06.608Z,69.13
2023-03-29T11:16:06.462Z,70.52
2023-03-29T11:17:06.493Z,70.29
2023-03-29T11:18:06.849Z,67.99
2023-03-29T11:19:06.531Z,67.89
2023-03-29T11:20:06.392Z,68.70
2023-03-29T11:21:10.324Z,69.13
2023-03-29T11:22:06.395Z,69.74
2023-03-29T11:23:06.402Z,70.01
2023-03-29T11:24:06.389Z,68.70
2023-03-29T11:25:06.398Z,69.10
2023-03-29T11:26:06.367Z,68.12
2023-03-29T11:27:06.344Z,68.90
2023-03-29T11:28:06.347Z,68.19
2023-03-29T11:29:06.312Z,69.34
2023-03-29T11:30:06.321Z,69.10
2023-03-29T11:31:06.747Z,67.18
2023-03-29T11:32:06.277Z,65.06
2023-03-29T11:33:06.340Z,67.18
2023-03-29T11:34:06.288Z,67.35
2023-03-29T11:35:06.247Z,66.35
2023-03-29T11:36:06.359Z,67.43
2023-03-29T11:37:06.242Z,65.67
2023-03-29T11:38:06.226Z,65.54
2023-03-29T11:39:06.237Z,62.18
2023-03-29T11:40:06.183Z,63.32
2023-03-29T11:41:06.366Z,63.76
2023-03-29T11:42:06.211Z,65.10
2023-03-29T11:43:06.138Z,64.52
2023-03-29T11:44:06.123Z,65.56
2023-03-29T11:45:06.171Z,67.82
2023-03-29T11:46:06.178Z,69.17
2023-03-29T11:47:06.163Z,68.26
2023-03-29T11:48:06.198Z,66.77
2023-03-29T11:49:06.141Z,68.49
2023-03-29T11:50:06.125Z,70.42
2023-03-29T11:51:06.145Z,70.72
2023-03-29T11:52:06.145Z,68.56
2023-03-29T11:53:06.085Z,67.32
2023-03-29T11:54:06.124Z,69.78
2023-03-29T11:55:06.063Z,67.16
2023-03-29T11:56:06.054Z,63.73
2023-03-29T11:57:06.076Z,65.01
2023-03-29T11:58:06.009Z,65.05
2023-03-29T11:59:06.025Z,63.37
2023-03-29T12:00:06.021Z,62.16
2023-03-29T12:01:05.968Z,62.60
2023-03-29T12:02:06.008Z,62.90
2023-03-29T12:03:06.020Z,63.60
2023-03-29T12:04:06.036Z,64.31
2023-03-29T12:05:05.991Z,62.19
2023-03-29T12:06:05.979Z,62.35
2023-03-29T12:07:05.948Z,64.47
2023-03-29T12:08:05.911Z,64.37
2023-03-29T12:09:05.886Z,63.59
2023-03-29T12:10:05.902Z,64.13
2023-03-29T12:11:05.874Z,64.36
2023-03-29T12:12:05.894Z,67.09
2023-03-29T12:13:05.871Z,65.17
2023-03-29T12:14:05.855Z,66.58
2023-03-29T12:15:05.832Z,67.46
2023-03-29T12:16:05.839Z,65.04
2023-03-29T12:17:05.841Z,65.81
2023-03-29T12:18:05.876Z,66.12
2023-03-29T12:19:05.810Z,64.43
2023-03-29T12:20:05.793Z,64.64
2023-03-29T12:21:05.950Z,66.55
2023-03-29T12:22:05.776Z,65.75
2023-03-29T12:23:05.819Z,64.33
2023-03-29T12:24:05.809Z,65.24
2023-03-29T12:25:05.743Z,65.47
2023-03-29T12:26:05.733Z,65.50
2023-03-29T12:27:05.714Z,68.87
2023-03-29T12:28:05.758Z,68.37
2023-03-29T12:29:05.853Z,69.31
2023-03-29T12:30:05.742Z,69.51
2023-03-29T12:31:05.675Z,69.81
2023-03-29T12:32:05.764Z,69.10
2023-03-29T12:33:05.965Z,70.52
2023-03-29T12:34:05.651Z,69.21
2023-03-29T12:35:05.735Z,67.79
2023-03-29T12:36:05.869Z,68.47
2023-03-29T12:37:05.724Z,68.63
2023-03-29T12:38:05.786Z,68.06
2023-03-29T12:39:05.673Z,67.46
2023-03-29T12:40:05.734Z,69.58
2023-03-29T12:41:05.636Z,67.76
2023-03-29T12:42:05.764Z,68.77
2023-03-29T12:43:05.777Z,68.06
2023-03-29T12:44:05.540Z,68.87
2023-03-29T12:45:05.694Z,70.69
2023-03-29T12:46:05.822Z,69.48
2023-03-29T12:47:05.638Z,69.07
2023-03-29T12:48:05.713Z,68.16
2023-03-29T12:49:05.917Z,69.01
2023-03-29T12:50:05.536Z,69.14
2023-03-29T12:51:05.481Z,70.36
2023-03-29T12:52:05.472Z,70.49